Wagga Wagga, New South Wales

1:07 AM EST on September 02, 2014 (GMT +1000)
Kooringal | Change Station
CLOSE
Current Station
Personal Weather Station
Location: Kooringal, New South Wales
Elevation: 823 ft
Nearby Weather Stations

Elev 823 ft 35.13 °S, 147.38 °E | Updated 13 minutes ago

Overcast
Overcast
48.9 °F
Feels Like 49 °F
N
0.0
Wind Variable Wind from East
Gusts 4.0 mph

Today
High -- | Low -- °F
--% Chance of Precip.
Yesterday
High -- | Low -- °F
Precip. -- in
6:29 AM 5:52 PM
Waxing Crescent, 41% visible
Pressure 29.86 in
Visibility 6.2 miles
Clouds Scattered Clouds 1200 ft
Overcast 8500 ft
Windchill 49 °F
Dew Point 47 °F
Humidity 92%
Rainfall 0.00 in
Snow Depth Not available.
UV 0.0 out of 12
Pollen Not available.
Air Quality Not available.
Flu Activity Not available.
METAR YSWG 011500Z AUTO 30006KT 9999 // SCT012 OVC085 09/08 Q1011

More Conditions Fewer Conditions

Pressure 29.86 in
Visibility 6.2 miles
Clouds Scattered Clouds 1200 ft
Overcast 8500 ft
Windchill 49 °F
Dew Point 47 °F
Humidity 92%
Rainfall 0.00 in
Snow Depth Not available.
UV 0.0 out of 12
Pollen Not available.
Air Quality Not available.
Flu Activity Not available.
METAR YSWG 011500Z AUTO 30006KT 9999 // SCT012 OVC085 09/08 Q1011

More Conditions Fewer Conditions

10-Day Weather Forecast

Almanac

Astronomy

Sep. 02, 2014 Rise Set
Actual Time 6:29 AM EST 5:52 PM EST
Civil Twilight 6:04 AM EST 6:17 PM EST
Nautical Twilight 5:34 AM EST 6:47 PM EST
Astronomical Twilight 5:05 AM EST 7:16 PM EST
Moon 10:47 AM EST (9/2) 12:03 AM EST (9/2)
Length of Visible Light 12h 13m
Length of Day
11h 22m
Tomorrow will be 2m 5s longer.
Waxing Crescent, 41% of the Moon is Illuminated
Sep 1
Waxing Crescent
Sep 2
First Quarter
Sep 8
Full
Sep 15
Last Quarter
Sep 24
New

Yesterday's Extremes

Country Highs Country Lows

Community

WunderPhotos

Upload Photos

1,749,256 photos uploaded!

Nearby

Snow Depth

Not available.

Earthquake Activity

City Distance Mag. Time & Date
No recent earthquake activity has been reported nearby.
Minimum magnitude displayed is 2.5.

Coastal Water Temperatures

Place Temperature
No Stations Reporting

Nearby Weather Stations